createdAt,value
2023-01-11T00:00:19.457Z,5.08
2023-01-11T00:02:48.547Z,4.87
2023-01-11T00:05:17.385Z,4.81
2023-01-11T00:07:47.727Z,4.88
2023-01-11T00:10:16.693Z,4.82
2023-01-11T00:12:45.493Z,5.25
2023-01-11T00:15:14.442Z,5.32
2023-01-11T00:17:43.508Z,4.94
2023-01-11T00:20:12.564Z,5.60
2023-01-11T00:22:41.286Z,5.61
2023-01-11T00:25:12.075Z,5.21
2023-01-11T00:27:40.847Z,5.67
2023-01-11T00:30:10.511Z,5.34
2023-01-11T00:32:39.627Z,5.89
2023-01-11T00:35:09.627Z,5.84
2023-01-11T00:37:38.445Z,6.11
2023-01-11T00:40:08.032Z,5.81
2023-01-11T00:42:51.870Z,6.19
2023-01-11T00:45:34.230Z,5.96
2023-01-11T00:48:05.136Z,6.22
2023-01-11T00:50:35.098Z,6.28
2023-01-11T00:53:04.001Z,6.89
2023-01-11T00:55:33.413Z,6.85
2023-01-11T00:58:03.827Z,6.98
2023-01-11T01:00:32.669Z,7.52
2023-01-11T01:03:01.499Z,7.22
2023-01-11T01:05:31.689Z,7.20
2023-01-11T01:08:00.565Z,7.42
2023-01-11T01:10:29.667Z,7.95
2023-01-11T01:13:12.427Z,7.79
2023-01-11T01:15:43.196Z,7.87
2023-01-11T01:18:13.066Z,8.05
2023-01-11T01:20:42.043Z,8.28
2023-01-11T01:23:10.870Z,8.15
2023-01-11T01:25:39.857Z,8.37
2023-01-11T01:28:08.643Z,8.14
2023-01-11T01:30:40.236Z,8.14
2023-01-11T01:33:11.721Z,8.12
2023-01-11T01:35:40.762Z,7.73
2023-01-11T01:38:09.606Z,7.77
2023-01-11T01:40:43.309Z,7.64
2023-01-11T01:43:13.731Z,7.61
2023-01-11T01:45:43.997Z,7.41
2023-01-11T01:48:16.029Z,6.90
2023-01-11T01:50:46.293Z,7.03
2023-01-11T01:53:16.139Z,6.30
2023-01-11T01:55:46.494Z,6.25
2023-01-11T01:58:16.108Z,6.08
2023-01-11T02:00:46.234Z,6.13
2023-01-11T02:03:17.865Z,5.56
2023-01-11T02:05:46.717Z,5.91
2023-01-11T02:08:19.254Z,5.75
2023-01-11T02:10:48.513Z,5.48
2023-01-11T02:13:17.337Z,5.51
2023-01-11T02:15:46.591Z,5.30
2023-01-11T02:18:18.893Z,4.90
2023-01-11T02:20:56.750Z,4.77
2023-01-11T02:23:38.235Z,4.78
2023-01-11T02:26:20.668Z,4.71
2023-01-11T02:28:53.521Z,4.47
2023-01-11T02:31:27.879Z,4.25
2023-01-11T02:34:02.085Z,4.18
2023-01-11T02:36:35.266Z,4.11
2023-01-11T02:39:07.378Z,3.65
2023-01-11T02:41:52.049Z,3.54
2023-01-11T02:44:37.048Z,3.22
2023-01-11T02:47:06.709Z,3.14
2023-01-11T02:49:37.375Z,2.93
2023-01-11T02:52:09.599Z,2.60
2023-01-11T02:54:38.467Z,2.73
2023-01-11T02:57:07.333Z,2.29
2023-01-11T02:59:37.875Z,2.43
2023-01-11T03:02:06.834Z,2.36
2023-01-11T03:04:37.755Z,2.15
2023-01-11T03:07:15.936Z,1.98
2023-01-11T03:09:50.815Z,1.99
2023-01-11T03:12:42.553Z,1.95
2023-01-11T03:15:21.808Z,1.80
2023-01-11T03:17:54.903Z,1.73
2023-01-11T03:20:25.622Z,1.79
2023-01-11T03:23:05.369Z,2.09
2023-01-11T03:25:38.169Z,1.65
2023-01-11T03:28:12.700Z,1.81
2023-01-11T03:31:01.857Z,1.59
2023-01-11T03:33:34.515Z,2.07
2023-01-11T03:36:07.806Z,1.98
2023-01-11T03:38:38.709Z,1.48
2023-01-11T03:41:08.549Z,1.70
2023-01-11T03:43:38.203Z,1.73
2023-01-11T03:46:09.787Z,1.62
2023-01-11T03:48:40.325Z,1.69
2023-01-11T03:51:11.370Z,1.77
2023-01-11T03:53:40.390Z,1.55
2023-01-11T03:56:12.131Z,2.08
2023-01-11T03:58:41.449Z,1.63
2023-01-11T04:01:11.991Z,2.09
2023-01-11T04:03:40.806Z,2.13
2023-01-11T04:06:10.759Z,1.93
2023-01-11T04:08:39.646Z,2.14
2023-01-11T04:11:08.484Z,2.41
2023-01-11T04:13:37.584Z,2.14
2023-01-11T04:16:06.718Z,2.11
2023-01-11T04:18:36.924Z,2.22
2023-01-11T04:21:06.439Z,2.04
2023-01-11T04:23:35.991Z,2.36
2023-01-11T04:26:05.166Z,2.31
2023-01-11T04:28:34.039Z,2.32
2023-01-11T04:31:02.877Z,2.79
2023-01-11T04:33:32.067Z,2.50
2023-01-11T04:36:05.495Z,2.62
2023-01-11T04:38:34.948Z,2.73
2023-01-11T04:41:17.481Z,2.44
2023-01-11T04:43:46.573Z,2.52
2023-01-11T04:46:16.016Z,2.85
2023-01-11T04:49:03.246Z,2.70
2023-01-11T04:51:33.881Z,3.04
2023-01-11T04:54:02.758Z,2.51
2023-01-11T04:56:31.756Z,2.83
2023-01-11T04:59:00.911Z,2.99
2023-01-11T05:01:29.817Z,3.10
2023-01-11T05:03:58.778Z,3.04
2023-01-11T05:06:27.790Z,3.53
2023-01-11T05:08:58.489Z,3.24
2023-01-11T05:11:27.345Z,3.25
2023-01-11T05:14:00.198Z,3.25
2023-01-11T05:16:29.388Z,3.20
2023-01-11T05:18:58.806Z,3.73
2023-01-11T05:21:28.523Z,3.45
2023-01-11T05:23:59.463Z,3.71
2023-01-11T05:26:29.483Z,3.75
2023-01-11T05:28:59.239Z,3.66
2023-01-11T05:31:29.151Z,4.08
2023-01-11T05:33:58.200Z,3.86
2023-01-11T05:36:27.300Z,4.16
2023-01-11T05:38:58.088Z,4.06
2023-01-11T05:41:27.634Z,4.44
2023-01-11T05:44:11.421Z,4.08
2023-01-11T05:46:40.867Z,4.33
2023-01-11T05:49:10.114Z,4.20
2023-01-11T05:51:40.571Z,4.76
2023-01-11T05:54:13.169Z,4.89
2023-01-11T05:56:42.707Z,4.67
2023-01-11T05:59:12.680Z,4.71
2023-01-11T06:01:41.534Z,4.85
2023-01-11T06:04:11.975Z,5.11
2023-01-11T06:06:41.620Z,5.13
2023-01-11T06:09:12.208Z,5.70
2023-01-11T06:11:59.239Z,5.53
2023-01-11T06:14:28.378Z,5.55
2023-01-11T06:16:57.269Z,5.72
2023-01-11T06:19:26.263Z,5.77
2023-01-11T06:21:55.078Z,5.98
2023-01-11T06:24:26.329Z,6.32
2023-01-11T06:26:55.174Z,5.73
2023-01-11T06:29:24.023Z,6.49
2023-01-11T06:31:53.153Z,6.21
2023-01-11T06:34:21.979Z,6.30
2023-01-11T06:36:51.139Z,6.08
2023-01-11T06:39:20.379Z,6.34
2023-01-11T06:41:51.265Z,6.60
2023-01-11T06:44:20.625Z,6.62
2023-01-11T06:46:49.735Z,6.81
2023-01-11T06:49:20.869Z,6.57
2023-01-11T06:51:49.811Z,6.58
2023-01-11T06:54:24.582Z,7.14
2023-01-11T06:56:54.879Z,7.02
2023-01-11T06:59:23.693Z,6.90
2023-01-11T07:01:53.556Z,7.30
2023-01-11T07:04:22.738Z,7.54
2023-01-11T07:06:54.601Z,7.38
2023-01-11T07:09:23.503Z,7.43
2023-01-11T07:11:53.708Z,7.68
2023-01-11T07:14:24.975Z,7.52
2023-01-11T07:16:54.001Z,8.01
2023-01-11T07:19:22.834Z,8.03
2023-01-11T07:21:51.821Z,8.35
2023-01-11T07:24:26.234Z,8.52
2023-01-11T07:26:56.625Z,7.88
2023-01-11T07:29:25.430Z,8.24
2023-01-11T07:31:54.618Z,8.57
2023-01-11T07:34:24.200Z,8.57
2023-01-11T07:36:53.242Z,8.31
2023-01-11T07:39:26.831Z,8.64
2023-01-11T07:42:16.037Z,8.73
2023-01-11T07:44:44.941Z,8.99
2023-01-11T07:47:13.794Z,9.05
2023-01-11T07:49:43.059Z,8.95
2023-01-11T07:52:11.902Z,9.25
2023-01-11T07:54:40.762Z,9.52
2023-01-11T07:57:11.112Z,9.17
2023-01-11T07:59:39.961Z,9.75
2023-01-11T08:02:08.812Z,9.86
2023-01-11T08:04:37.884Z,9.88
2023-01-11T08:07:06.767Z,9.82
2023-01-11T08:09:36.047Z,9.88
2023-01-11T08:12:18.792Z,10.42
2023-01-11T08:14:49.243Z,9.79
2023-01-11T08:17:21.194Z,10.26
2023-01-11T08:19:50.175Z,10.26
2023-01-11T08:22:19.526Z,10.73
2023-01-11T08:24:48.424Z,10.45
2023-01-11T08:27:19.604Z,10.28
2023-01-11T08:29:49.834Z,10.20
2023-01-11T08:32:18.632Z,10.08
2023-01-11T08:35:06.719Z,10.71
2023-01-11T08:37:44.329Z,10.59
2023-01-11T08:40:16.180Z,10.79
2023-01-11T08:42:47.499Z,10.97
2023-01-11T08:45:18.511Z,10.93
2023-01-11T08:47:49.185Z,10.84
2023-01-11T08:50:18.950Z,10.79
2023-01-11T08:52:48.793Z,10.42
2023-01-11T08:55:17.772Z,10.83
2023-01-11T08:57:52.690Z,10.32
2023-01-11T09:00:23.427Z,10.72
2023-01-11T09:02:55.622Z,10.79
2023-01-11T09:05:25.197Z,11.13
2023-01-11T09:07:59.492Z,10.65
2023-01-11T09:10:28.377Z,10.72
2023-01-11T09:12:59.190Z,11.02
2023-01-11T09:15:30.852Z,10.61
2023-01-11T09:18:04.873Z,11.29
2023-01-11T09:20:34.853Z,10.57
2023-01-11T09:23:06.600Z,11.18
2023-01-11T09:25:53.578Z,10.81
2023-01-11T09:28:22.518Z,11.09
2023-01-11T09:30:55.958Z,10.67
2023-01-11T09:33:24.883Z,10.90
2023-01-11T09:36:00.771Z,11.44
2023-01-11T09:38:35.633Z,10.92
2023-01-11T09:41:09.480Z,10.99
2023-01-11T09:43:41.491Z,11.98
2023-01-11T09:46:12.062Z,11.85
2023-01-11T09:48:43.847Z,11.79
2023-01-11T09:51:16.139Z,11.67
2023-01-11T09:53:50.693Z,11.96
2023-01-11T09:56:24.986Z,12.06
2023-01-11T09:59:00.543Z,11.98
2023-01-11T10:01:41.157Z,12.04
2023-01-11T10:04:26.890Z,12.76
2023-01-11T10:07:07.768Z,13.31
2023-01-11T10:18:23.665Z,13.03
2023-01-11T10:18:48.877Z,13.81
2023-01-11T10:21:16.155Z,13.31
2023-01-11T10:23:49.958Z,13.35
2023-01-11T10:26:27.768Z,13.43
2023-01-11T10:29:17.781Z,13.58
2023-01-11T10:32:22.339Z,13.74
2023-01-11T10:35:17.193Z,13.87
2023-01-11T10:37:59.878Z,13.37
2023-01-11T10:40:35.785Z,13.68
2023-01-11T10:43:09.382Z,14.79
2023-01-11T10:45:40.482Z,14.67
2023-01-11T10:48:12.131Z,15.33
2023-01-11T10:50:47.182Z,15.87
2023-01-11T10:53:20.698Z,15.92
2023-01-11T10:55:53.647Z,16.71
2023-01-11T10:58:31.775Z,16.48
2023-01-11T11:01:09.092Z,16.97
2023-01-11T11:03:46.443Z,17.75
2023-01-11T11:06:22.336Z,18.12
2023-01-11T11:08:53.886Z,18.84
2023-01-11T11:11:24.198Z,19.21
2023-01-11T11:13:55.445Z,19.65
2023-01-11T11:16:35.727Z,20.49
2023-01-11T11:19:04.522Z,21.53
2023-01-11T11:21:37.598Z,21.48
2023-01-11T11:24:08.617Z,22.35
2023-01-11T11:26:39.932Z,22.22
2023-01-11T11:29:09.535Z,21.89
2023-01-11T11:31:39.070Z,23.17
2023-01-11T11:34:09.648Z,23.10
2023-01-11T11:36:46.655Z,23.82
2023-01-11T11:39:21.132Z,24.50
2023-01-11T11:41:52.414Z,25.33
2023-01-11T11:44:22.267Z,24.85
2023-01-11T11:46:58.863Z,25.35
2023-01-11T11:49:28.008Z,25.54
2023-01-11T11:52:00.079Z,26.50
2023-01-11T11:54:30.177Z,25.84
2023-01-11T11:56:59.938Z,26.90
2023-01-11T11:59:30.300Z,27.48
2023-01-11T12:02:01.764Z,28.26
2023-01-11T12:04:38.228Z,28.94
2023-01-11T12:07:10.192Z,29.12
2023-01-11T12:09:39.083Z,28.39
2023-01-11T12:12:10.073Z,27.47
2023-01-11T12:14:40.491Z,29.11
2023-01-11T12:17:22.908Z,30.24
2023-01-11T12:19:51.795Z,30.50
2023-01-11T12:22:22.854Z,31.24
2023-01-11T12:25:27.359Z,31.71
2023-01-11T12:28:00.746Z,31.30
2023-01-11T12:30:32.094Z,33.01
2023-01-11T12:33:21.704Z,34.68
2023-01-11T12:35:54.478Z,35.09
2023-01-11T12:38:32.096Z,36.52
2023-01-11T12:41:09.043Z,37.72
2023-01-11T12:44:00.383Z,37.88
2023-01-11T12:46:35.092Z,40.16
2023-01-11T12:49:13.888Z,42.92
2023-01-11T12:51:52.267Z,45.73
2023-01-11T12:54:31.269Z,48.27
2023-01-11T13:00:07.607Z,50.34
2023-01-11T13:02:45.729Z,50.86
2023-01-11T13:05:18.471Z,51.86
2023-01-11T13:07:53.870Z,53.90
2023-01-11T13:10:31.585Z,50.94
2023-01-11T13:13:02.357Z,49.29
2023-01-11T13:15:36.010Z,49.50
2023-01-11T13:18:09.026Z,50.93
2023-01-11T13:20:59.299Z,52.35
2023-01-11T13:23:34.651Z,53.50
2023-01-11T13:26:16.927Z,53.83
2023-01-11T13:28:51.869Z,53.59
2023-01-11T13:31:22.816Z,54.51
2023-01-11T13:33:56.665Z,57.17
2023-01-11T13:36:27.417Z,56.42
2023-01-11T13:38:58.005Z,58.23
2023-01-11T13:41:30.571Z,61.57
2023-01-11T13:44:01.150Z,61.32
2023-01-11T13:46:42.371Z,65.74
2023-01-11T13:49:16.041Z,65.82
2023-01-11T13:51:47.802Z,74.50
2023-01-11T13:54:18.444Z,75.07
2023-01-11T13:56:49.939Z,91.10
2023-01-11T13:59:37.539Z,91.91
2023-01-11T14:02:09.552Z,100.00
2023-01-11T14:04:43.854Z,100.00
2023-01-11T14:07:20.170Z,100.00
2023-01-11T14:10:01.305Z,100.00
2023-01-11T14:12:39.309Z,100.00
2023-01-11T14:15:16.738Z,100.00
2023-01-11T14:17:58.819Z,100.00
2023-01-11T14:20:30.662Z,100.00
2023-01-11T14:23:03.945Z,100.00
2023-01-11T14:25:34.111Z,100.00
2023-01-11T14:28:23.703Z,100.00
2023-01-11T14:31:03.364Z,100.00
2023-01-11T14:33:57.355Z,100.00
2023-01-11T14:36:38.681Z,100.00
2023-01-11T14:39:16.235Z,100.00
2023-01-11T14:41:57.068Z,100.00
2023-01-11T14:44:36.275Z,100.00
2023-01-11T14:47:17.754Z,100.00
2023-01-11T14:49:58.120Z,100.00
2023-01-11T14:52:39.565Z,100.00
2023-01-11T14:55:12.745Z,100.00
2023-01-11T14:57:42.270Z,100.00
2023-01-11T15:00:40.392Z,100.00
2023-01-11T15:03:31.328Z,100.00
2023-01-11T15:06:21.727Z,100.00
2023-01-11T15:08:52.973Z,100.00
2023-01-11T15:11:26.799Z,100.00
2023-01-11T15:13:58.975Z,100.00
2023-01-11T15:16:42.873Z,100.00
2023-01-11T15:19:16.205Z,100.00
2023-01-11T15:21:50.848Z,100.00
2023-01-11T15:24:24.254Z,100.00
2023-01-11T15:26:55.851Z,100.00
2023-01-11T15:29:25.758Z,100.00
2023-01-11T15:32:07.342Z,100.00
2023-01-11T15:34:44.700Z,100.00
2023-01-11T15:37:28.376Z,100.00
2023-01-11T15:39:59.828Z,98.98
2023-01-11T15:42:41.619Z,94.98
2023-01-11T15:45:28.894Z,92.65
2023-01-11T15:48:09.715Z,94.70
2023-01-11T15:51:01.139Z,93.11
2023-01-11T15:53:43.181Z,94.65
2023-01-11T15:56:44.210Z,93.32
2023-01-11T15:59:34.001Z,93.77
2023-01-11T16:02:32.476Z,93.43
2023-01-11T16:05:02.141Z,89.76
2023-01-11T16:07:52.465Z,88.44
2023-01-11T16:10:32.462Z,88.37
2023-01-11T16:13:08.450Z,90.23
2023-01-11T16:15:49.571Z,89.02
2023-01-11T16:18:19.891Z,87.50
2023-01-11T16:20:59.148Z,84.04
2023-01-11T16:23:32.387Z,82.74
2023-01-11T16:26:07.937Z,82.03
2023-01-11T16:28:45.735Z,80.54
2023-01-11T16:31:19.917Z,78.22
2023-01-11T16:33:49.897Z,76.43
2023-01-11T16:36:24.226Z,78.33
2023-01-11T16:39:04.135Z,81.06
2023-01-11T16:41:37.006Z,78.63
2023-01-11T16:44:07.814Z,78.00
2023-01-11T16:47:05.886Z,79.44
2023-01-11T16:49:35.244Z,76.24
2023-01-11T16:52:14.317Z,76.75
2023-01-11T16:54:44.669Z,77.14
2023-01-11T16:57:15.700Z,75.99
2023-01-11T16:59:45.158Z,76.52
2023-01-11T17:02:29.178Z,79.41
2023-01-11T17:05:00.928Z,80.44
2023-01-11T17:07:31.135Z,81.32
2023-01-11T17:10:17.654Z,83.18
2023-01-11T17:12:49.068Z,84.28
2023-01-11T17:15:20.415Z,85.64
2023-01-11T17:17:49.773Z,88.48
2023-01-11T17:20:21.647Z,89.78
2023-01-11T17:22:56.100Z,91.03
2023-01-11T17:25:45.551Z,92.40
2023-01-11T17:28:16.541Z,95.95
2023-01-11T17:30:45.705Z,96.27
2023-01-11T17:33:26.422Z,96.47
2023-01-11T17:35:55.391Z,95.63
2023-01-11T17:38:25.460Z,96.59
2023-01-11T17:40:57.785Z,97.36
2023-01-11T17:43:42.096Z,93.23
2023-01-11T17:46:16.377Z,99.06
2023-01-11T17:48:53.087Z,98.75
2023-01-11T17:51:26.235Z,94.96
2023-01-11T17:53:55.245Z,92.92
2023-01-11T17:56:38.547Z,94.13
2023-01-11T17:59:18.308Z,91.15
2023-01-11T18:01:47.792Z,89.12
2023-01-11T18:04:19.233Z,86.29
2023-01-11T18:06:48.767Z,84.88
2023-01-11T18:09:23.460Z,84.58
2023-01-11T18:11:53.998Z,82.31
2023-01-11T18:14:24.474Z,84.39
2023-01-11T18:17:00.514Z,83.86
2023-01-11T18:19:45.997Z,86.83
2023-01-11T18:22:29.855Z,92.81
2023-01-11T18:24:58.924Z,95.01
2023-01-11T18:27:30.878Z,99.82
2023-01-11T18:30:08.855Z,100.00
2023-01-11T18:32:40.957Z,100.00
2023-01-11T18:35:18.331Z,100.00
2023-01-11T18:37:47.882Z,100.00
2023-01-11T18:40:17.514Z,100.00
2023-01-11T18:42:49.961Z,100.00
2023-01-11T18:45:19.013Z,100.00
2023-01-11T18:47:48.192Z,100.00
2023-01-11T18:50:29.250Z,100.00
2023-01-11T18:52:58.515Z,100.00
2023-01-11T18:55:28.222Z,100.00
2023-01-11T18:58:01.313Z,100.00
2023-01-11T19:00:32.792Z,100.00
2023-01-11T19:03:02.038Z,100.00
2023-01-11T19:05:30.932Z,100.00
2023-01-11T19:07:59.845Z,100.00
2023-01-11T19:10:30.998Z,100.00
2023-01-11T19:13:01.882Z,100.00
2023-01-11T19:15:31.108Z,100.00
2023-01-11T19:23:00.805Z,100.00
2023-01-11T19:25:29.976Z,100.00
2023-01-11T19:27:58.864Z,100.00
2023-01-11T19:30:29.240Z,100.00
2023-01-11T19:32:58.051Z,100.00
2023-01-11T19:35:27.229Z,100.00
2023-01-11T19:37:56.147Z,100.00
2023-01-11T19:40:24.983Z,100.00
2023-01-11T19:42:53.840Z,100.00
2023-01-11T19:45:22.971Z,100.00
2023-01-11T19:47:53.497Z,100.00
2023-01-11T19:50:22.310Z,100.00
2023-01-11T19:52:51.279Z,100.00
2023-01-11T19:55:20.531Z,100.00
2023-01-11T19:57:49.972Z,100.00
2023-01-11T20:00:20.857Z,100.00
2023-01-11T20:02:49.746Z,100.00
2023-01-11T20:05:20.097Z,100.00
2023-01-11T20:07:49.851Z,100.00
2023-01-11T20:10:19.025Z,100.00
2023-01-11T20:12:47.847Z,100.00
2023-01-11T20:15:17.760Z,100.00
2023-01-11T20:17:46.569Z,100.00
2023-01-11T20:20:15.671Z,100.00
2023-01-11T20:23:04.547Z,100.00
2023-01-11T20:25:33.530Z,100.00
2023-01-11T20:28:02.714Z,100.00
2023-01-11T20:30:31.848Z,100.00
2023-01-11T20:33:00.743Z,100.00
2023-01-11T20:35:31.314Z,100.00
2023-01-11T20:38:01.893Z,100.00
2023-01-11T20:40:30.756Z,100.00
2023-01-11T20:42:59.588Z,100.00
2023-01-11T20:45:29.501Z,100.00
2023-01-11T20:47:58.349Z,100.00
2023-01-11T20:50:27.463Z,100.00
2023-01-11T20:52:59.627Z,100.00
2023-01-11T20:55:48.375Z,100.00
2023-01-11T20:58:17.213Z,100.00
2023-01-11T21:00:46.055Z,98.90
2023-01-11T21:03:14.895Z,94.81
2023-01-11T21:05:44.320Z,92.60
2023-01-11T21:08:13.120Z,92.12
2023-01-11T21:10:43.600Z,89.96
2023-01-11T21:13:13.516Z,90.49
2023-01-11T21:15:42.743Z,89.18
2023-01-11T21:18:11.803Z,88.02
2023-01-11T21:20:43.218Z,88.67
2023-01-11T21:23:15.549Z,88.92
2023-01-11T21:25:46.845Z,88.33
2023-01-11T21:28:16.038Z,90.49
2023-01-11T21:30:44.864Z,93.45
2023-01-11T21:33:14.900Z,94.05
2023-01-11T21:35:43.910Z,94.22
2023-01-11T21:38:15.183Z,96.57
2023-01-11T21:40:45.744Z,98.86
2023-01-11T21:43:15.110Z,97.49
2023-01-11T21:45:44.020Z,95.26
2023-01-11T21:48:13.903Z,89.54
2023-01-11T21:50:46.562Z,85.79
2023-01-11T21:53:15.462Z,83.52
2023-01-11T21:55:45.936Z,78.63
2023-01-11T21:58:15.429Z,75.33
2023-01-11T22:00:44.355Z,73.03
2023-01-11T22:03:13.245Z,72.27
2023-01-11T22:05:42.421Z,70.22
2023-01-11T22:08:11.283Z,68.38
2023-01-11T22:10:40.820Z,66.02
2023-01-11T22:13:13.176Z,62.73
2023-01-11T22:15:42.359Z,61.37
2023-01-11T22:18:12.030Z,61.27
2023-01-11T22:20:41.190Z,58.90
2023-01-11T22:23:10.413Z,58.31
2023-01-11T22:25:39.557Z,56.92
2023-01-11T22:28:08.375Z,55.07
2023-01-11T22:30:38.510Z,52.33
2023-01-11T22:33:08.197Z,50.04
2023-01-11T22:35:37.242Z,48.97
2023-01-11T22:38:06.013Z,47.33
2023-01-11T22:40:34.794Z,46.23
2023-01-11T22:43:03.940Z,44.95
2023-01-11T22:45:32.839Z,43.87
2023-01-11T22:48:03.217Z,42.49
2023-01-11T22:50:32.075Z,41.62
2023-01-11T22:53:01.225Z,40.61
2023-01-11T22:55:30.073Z,40.73
2023-01-11T22:57:58.886Z,39.64
2023-01-11T23:00:27.864Z,40.14
2023-01-11T23:02:58.387Z,39.69
2023-01-11T23:05:28.644Z,39.01
2023-01-11T23:07:57.787Z,39.03
2023-01-11T23:10:26.603Z,38.43
2023-01-11T23:13:09.026Z,38.13
2023-01-11T23:15:40.206Z,38.64
2023-01-11T23:18:09.255Z,38.90
2023-01-11T23:20:39.411Z,38.37
2023-01-11T23:23:08.171Z,38.53
2023-01-11T23:25:37.247Z,37.77
2023-01-11T23:28:06.292Z,37.75
2023-01-11T23:30:35.102Z,37.99
2023-01-11T23:33:03.903Z,37.81
2023-01-11T23:35:32.773Z,38.11
2023-01-11T23:38:02.923Z,38.59
2023-01-11T23:40:51.660Z,37.85
2023-01-11T23:43:20.469Z,37.87
2023-01-11T23:45:49.704Z,37.78
2023-01-11T23:48:17.535Z,37.74
2023-01-11T23:50:46.372Z,36.44
2023-01-11T23:53:16.969Z,35.66
2023-01-11T23:55:45.841Z,34.77
2023-01-11T23:58:14.664Z,33.97
